Upson, Wisconsin
Current Conditions -  °F | °C
As of 5:55 PM on Saturday 25 Oct 2014 (Local Time) from KIWD Reporting Station
Clear Clear  
Wind Chill: 54°   Ceiling: Unl
Heat Index: 54°   Visibility: 10mi
Dew Point: 27°   Wind: 15mph
Humidity: 35%   Direction: 280°W
Pressure: 29.86"   Gusts: 24mph
Location:  46.37°N, 90.41°W
Report Text: KIWD 252255Z AUTO 28013G21KT 10SM CLR 12/M03 A2986 RMK AO1
Loading
Personal Weather Stations






























Interactive Weather Map
Tropical Storm Tracking
New forecast layout! Learn more

10-Day Weather Forecast

Advertisements
Track Severe Weather on mobile